Time;durP1;ratioP1;P1;durP2;ratioP2;P2;SDS_P1;SDS_P2;PMS_P1;PMS_P2;Temp;Humidity;BMP_temperature;BMP_pressure;BME280_temperature;BME280_humidity;BME280_pressure;Samples;Min_cycle;Max_cycle;Signal;HPM_P1;HPM_P2
2022/09/20 00:01:12;;;;;;;10.13;2.50;;;;;;;;;;2375210;56;21030;-81
2022/09/20 00:03:41;;;;;;;4.53;2.67;;;;;;;;;;2375554;56;21027;-81
2022/09/20 00:06:10;;;;;;;4.87;2.87;;;;;;;;;;2375238;56;21091;-80
2022/09/20 00:08:38;;;;;;;5.90;3.30;;;;;;;;;;2375360;56;21014;-80
2022/09/20 00:11:06;;;;;;;6.53;2.87;;;;;;;;;;2628523;52;21003;-80
2022/09/20 00:13:34;;;;;;;7.28;2.85;;;;;;;;;;2375828;56;21082;-81
2022/09/20 00:16:04;;;;;;;4.25;2.03;;;;;;;;;;2627605;52;21023;-82
2022/09/20 00:18:31;;;;;;;5.87;2.40;;;;;;;;;;2375475;56;21027;-80
2022/09/20 00:20:58;;;;;;;5.47;2.37;;;;;;;;;;2375433;56;21015;-79
2022/09/20 00:23:25;;;;;;;5.45;2.90;;;;;;;;;;2375456;56;21535;-80
2022/09/20 00:25:56;;;;;;;5.78;2.95;;;;;;;;;;2375061;56;21015;-80
2022/09/20 00:28:23;;;;;;;3.83;2.37;;;;;;;;;;2375482;56;21038;-79
2022/09/20 00:30:52;;;;;;;4.05;2.78;;;;;;;;;;2629073;52;21035;-79
2022/09/20 00:33:19;;;;;;;4.30;2.30;;;;;;;;;;2375746;56;21014;-78
2022/09/20 00:35:46;;;;;;;7.90;2.60;;;;;;;;;;2373967;56;21113;-79
2022/09/20 00:38:14;;;;;;;5.93;2.58;;;;;;;;;;2375508;56;21019;-79
2022/09/20 00:40:42;;;;;;;5.82;2.80;;;;;;;;;;2628815;52;21046;-79
2022/09/20 00:43:13;;;;;;;3.45;2.60;;;;;;;;;;2375671;56;21078;-79
2022/09/20 00:45:41;;;;;;;3.75;2.20;;;;;;;;;;2628359;52;21035;-79
2022/09/20 00:48:12;;;;;;;4.75;2.40;;;;;;;;;;2375621;56;21115;-80
2022/09/20 00:50:41;;;;;;;4.65;1.92;;;;;;;;;;2629048;52;21039;-79
2022/09/20 00:53:10;;;;;;;5.15;2.67;;;;;;;;;;2375584;56;21015;-80
2022/09/20 00:55:40;;;;;;;5.10;3.00;;;;;;;;;;2375067;56;21503;-80
2022/09/20 00:58:08;;;;;;;3.78;2.33;;;;;;;;;;2375916;56;21011;-79
2022/09/20 01:00:35;;;;;;;4.00;2.28;;;;;;;;;;2628435;52;21106;-78
2022/09/20 01:03:05;;;;;;;3.62;2.47;;;;;;;;;;2629504;52;21007;-78
2022/09/20 01:05:32;;;;;;;4.25;2.47;;;;;;;;;;2374644;56;21122;-79
2022/09/20 01:08:00;;;;;;;6.05;2.53;;;;;;;;;;2375485;56;21077;-79
2022/09/20 01:10:27;;;;;;;8.40;2.70;;;;;;;;;;2375844;56;21093;-78
2022/09/20 01:12:54;;;;;;;7.00;2.45;;;;;;;;;;2375641;56;21142;-80
2022/09/20 01:15:23;;;;;;;8.30;2.78;;;;;;;;;;2373677;56;21114;-79
2022/09/20 01:17:52;;;;;;;6.22;2.60;;;;;;;;;;2628604;52;21007;-79
2022/09/20 01:20:21;;;;;;;5.97;2.92;;;;;;;;;;2629381;52;21019;-79
2022/09/20 01:22:53;;;;;;;5.22;2.90;;;;;;;;;;2375457;56;21104;-80
2022/09/20 01:25:25;;;;;;;5.65;2.60;;;;;;;;;;2374778;56;21106;-78
2022/09/20 01:27:53;;;;;;;5.68;2.65;;;;;;;;;;2375625;56;21367;-82
2022/09/20 01:30:22;;;;;;;6.05;2.55;;;;;;;;;;2375055;56;21027;-80
2022/09/20 01:32:56;;;;;;;5.95;3.03;;;;;;;;;;2375765;56;21015;-80
2022/09/20 01:35:24;;;;;;;6.10;2.58;;;;;;;;;;2375478;56;21134;-79
2022/09/20 01:37:59;;;;;;;8.73;3.08;;;;;;;;;;2459460;52;72726;-77
2022/09/20 01:40:31;;;;;;;7.68;2.97;;;;;;;;;;2375613;56;21051;-77
2022/09/20 01:43:02;;;;;;;9.32;3.90;;;;;;;;;;2375666;56;21040;-78
2022/09/20 01:45:31;;;;;;;8.55;3.03;;;;;;;;;;2373525;56;21123;-78
2022/09/20 01:48:05;;;;;;;7.95;3.15;;;;;;;;;;2372983;56;22252;-78
2022/09/20 01:50:34;;;;;;;6.22;3.60;;;;;;;;;;2373308;56;21028;-78
2022/09/20 01:53:17;;;;;;;9.20;3.10;;;;;;;;;;2374001;56;21047;-78
2022/09/20 01:56:21;;;;;;;9.00;3.08;;;;;;;;;;2373751;56;21028;-77
2022/09/20 01:59:06;;;;;;;14.43;3.58;;;;;;;;;;2626982;52;21044;-77
2022/09/20 02:01:45;;;;;;;7.70;3.17;;;;;;;;;;2627119;52;21036;-78
2022/09/20 02:04:30;;;;;;;8.10;3.28;;;;;;;;;;2372375;56;21103;-78
2022/09/20 02:07:04;;;;;;;9.80;3.25;;;;;;;;;;2373746;56;22147;-78
2022/09/20 02:09:44;;;;;;;8.82;3.28;;;;;;;;;;2373717;56;21126;-77
2022/09/20 02:12:22;;;;;;;10.02;3.62;;;;;;;;;;2627376;52;21070;-77
2022/09/20 02:14:53;;;;;;;11.55;3.10;;;;;;;;;;2626601;52;21040;-78
2022/09/20 02:17:27;;;;;;;8.90;3.15;;;;;;;;;;2373596;56;21102;-78
2022/09/20 02:20:01;;;;;;;8.85;3.00;;;;;;;;;;2373287;56;21091;-79
2022/09/20 02:22:41;;;;;;;9.00;3.15;;;;;;;;;;2374306;56;21033;-78
2022/09/20 02:25:14;;;;;;;9.25;3.22;;;;;;;;;;2626694;52;21689;-78
2022/09/20 02:27:45;;;;;;;8.82;3.55;;;;;;;;;;2373411;56;21123;-78
2022/09/20 02:30:23;;;;;;;10.85;3.55;;;;;;;;;;2374123;56;21051;-80
2022/09/20 02:33:02;;;;;;;6.10;2.65;;;;;;;;;;2373865;56;21510;-77
2022/09/20 02:35:33;;;;;;;10.27;3.35;;;;;;;;;;2373468;56;21677;-78
2022/09/20 02:38:05;;;;;;;10.20;2.80;;;;;;;;;;2625361;52;21080;-78
2022/09/20 02:40:46;;;;;;;3.58;2.60;;;;;;;;;;2374447;56;21538;-78
2022/09/20 02:43:16;;;;;;;8.52;3.17;;;;;;;;;;2374045;56;21098;-77
2022/09/20 02:45:46;;;;;;;7.60;3.28;;;;;;;;;;2626656;52;21047;-78
2022/09/20 02:48:15;;;;;;;7.35;3.40;;;;;;;;;;2374291;56;21111;-77
2022/09/20 02:50:47;;;;;;;10.13;4.07;;;;;;;;;;2373460;56;21114;-79
2022/09/20 02:53:23;;;;;;;5.55;2.95;;;;;;;;;;2373107;56;22119;-77
2022/09/20 02:55:57;;;;;;;5.87;3.20;;;;;;;;;;2371490;56;21505;-77
2022/09/20 02:58:27;;;;;;;8.90;2.97;;;;;;;;;;2372929;56;21048;-79
2022/09/20 03:01:00;;;;;;;5.47;2.92;;;;;;;;;;2627332;52;21119;-80
2022/09/20 03:03:34;;;;;;;6.78;2.80;;;;;;;;;;2373749;56;21032;-78
2022/09/20 03:06:07;;;;;;;7.25;3.08;;;;;;;;;;2373246;56;21115;-78
2022/09/20 03:08:39;;;;;;;7.65;3.17;;;;;;;;;;2373674;56;21531;-77
2022/09/20 03:11:13;;;;;;;5.85;2.85;;;;;;;;;;2373889;56;21032;-78
2022/09/20 03:13:55;;;;;;;6.40;3.28;;;;;;;;;;2373627;56;21095;-78
2022/09/20 03:16:29;;;;;;;6.72;3.33;;;;;;;;;;2625986;52;21044;-77
2022/09/20 03:19:04;;;;;;;8.93;3.70;;;;;;;;;;2373858;56;21103;-77
2022/09/20 03:21:38;;;;;;;10.23;3.40;;;;;;;;;;2627098;52;21071;-79
2022/09/20 03:24:10;;;;;;;6.45;3.10;;;;;;;;;;2373089;56;21095;-77
2022/09/20 03:26:44;;;;;;;8.13;2.75;;;;;;;;;;2625928;52;21080;-78
2022/09/20 03:29:10;;;;;;;;;;;;;;;;;;2376260;56;21048;-78
2022/09/20 03:31:42;;;;;;;9.80;4.47;;;;;;;;;;2373802;56;20117;-77
2022/09/20 03:34:16;;;;;;;6.07;3.67;;;;;;;;;;2374066;56;21665;-78
2022/09/20 03:36:56;;;;;;;8.85;3.58;;;;;;;;;;2372503;56;22089;-78
2022/09/20 03:39:33;;;;;;;4.57;2.95;;;;;;;;;;2372944;56;21099;-77
2022/09/20 03:42:07;;;;;;;7.80;4.15;;;;;;;;;;2372945;56;21044;-78
2022/09/20 03:44:48;;;;;;;5.05;2.83;;;;;;;;;;2626640;52;21052;-77
2022/09/20 03:47:24;;;;;;;5.97;3.15;;;;;;;;;;2373234;56;21518;-77
2022/09/20 03:50:00;;;;;;;7.50;2.83;;;;;;;;;;2626642;52;21126;-77
2022/09/20 03:52:37;;;;;;;8.70;3.72;;;;;;;;;;2374403;56;21577;-77
2022/09/20 03:55:24;;;;;;;7.37;3.25;;;;;;;;;;2626556;52;21036;-77
2022/09/20 03:58:02;;;;;;;8.32;3.58;;;;;;;;;;2606492;52;21624;-77
2022/09/20 04:00:37;;;;;;;7.55;3.10;;;;;;;;;;2373694;56;21191;-78
2022/09/20 04:03:21;;;;;;;6.07;2.80;;;;;;;;;;2373846;56;21087;-77
2022/09/20 04:05:59;;;;;;;4.75;2.92;;;;;;;;;;2373932;56;21693;-76
2022/09/20 04:08:32;;;;;;;5.45;3.45;;;;;;;;;;2374277;56;21020;-77
2022/09/20 04:11:04;;;;;;;7.35;3.70;;;;;;;;;;2372218;56;21037;-77
2022/09/20 04:13:35;;;;;;;6.22;3.45;;;;;;;;;;2373550;56;21136;-78
2022/09/20 04:16:11;;;;;;;5.03;2.97;;;;;;;;;;2373075;56;21055;-77
2022/09/20 04:18:42;;;;;;;7.15;3.90;;;;;;;;;;2373455;56;21104;-80
2022/09/20 04:21:14;;;;;;;6.85;3.42;;;;;;;;;;2372968;56;21032;-77
2022/09/20 04:23:46;;;;;;;5.43;3.80;;;;;;;;;;2373802;56;21123;-76
2022/09/20 04:26:15;;;;;;;3.83;3.00;;;;;;;;;;2372745;56;21650;-80
2022/09/20 04:28:48;;;;;;;9.90;5.37;;;;;;;;;;2373334;56;21115;-80
2022/09/20 04:31:21;;;;;;;9.45;5.50;;;;;;;;;;2627264;52;21044;-78
2022/09/20 04:33:50;;;;;;;8.07;4.50;;;;;;;;;;2373775;56;21107;-78
2022/09/20 04:36:29;;;;;;;7.10;4.90;;;;;;;;;;2626578;52;21537;-78
2022/09/20 04:39:02;;;;;;;7.93;3.70;;;;;;;;;;2627724;52;21115;-77
2022/09/20 04:41:52;;;;;;;9.52;6.55;;;;;;;;;;2374469;56;21040;-79
2022/09/20 04:44:29;;;;;;;8.27;6.12;;;;;;;;;;2371873;56;21112;-77
2022/09/20 04:47:07;;;;;;;7.72;5.35;;;;;;;;;;2372816;56;21056;-78
2022/09/20 04:49:46;;;;;;;7.60;4.78;;;;;;;;;;2373698;56;21111;-79
2022/09/20 04:52:17;;;;;;;5.60;4.22;;;;;;;;;;2626488;52;21039;-77
2022/09/20 04:55:09;;;;;;;6.50;4.60;;;;;;;;;;2373593;56;21194;-77
2022/09/20 04:57:54;;;;;;;10.75;4.37;;;;;;;;;;2373313;56;21103;-76
2022/09/20 05:00:22;;;;;;;4.40;3.62;;;;;;;;;;2373903;56;21055;-77
2022/09/20 05:03:11;;;;;;;6.65;3.87;;;;;;;;;;2373519;56;21124;-76
2022/09/20 05:05:47;;;;;;;4.43;3.15;;;;;;;;;;2373154;56;21044;-77
2022/09/20 05:08:32;;;;;;;4.28;3.25;;;;;;;;;;2373964;56;21102;-76
2022/09/20 05:11:29;;;;;;;6.28;3.67;;;;;;;;;;2373655;56;21048;-77
2022/09/20 05:14:12;;;;;;;4.90;3.10;;;;;;;;;;2373282;56;21079;-77
2022/09/20 05:16:48;;;;;;;3.83;2.92;;;;;;;;;;2627201;52;21665;-78
2022/09/20 05:19:23;;;;;;;6.62;3.37;;;;;;;;;;2373529;56;21067;-79
2022/09/20 05:22:02;;;;;;;6.50;3.40;;;;;;;;;;2373535;56;21048;-76
2022/09/20 05:24:46;;;;;;;5.55;3.90;;;;;;;;;;2373249;56;21055;-76
2022/09/20 05:27:22;;;;;;;7.62;3.95;;;;;;;;;;2373087;56;21048;-76
2022/09/20 05:29:51;;;;;;;10.05;3.78;;;;;;;;;;2374180;56;21120;-77
2022/09/20 05:32:23;;;;;;;4.70;3.67;;;;;;;;;;2374164;56;21051;-76
2022/09/20 05:34:54;;;;;;;6.30;3.92;;;;;;;;;;2374311;56;21047;-78
2022/09/20 05:37:28;;;;;;;5.28;3.58;;;;;;;;;;2626582;52;21040;-77
2022/09/20 05:39:59;;;;;;;5.72;3.72;;;;;;;;;;2374373;56;21622;-77
2022/09/20 05:42:36;;;;;;;17.50;6.80;;;;;;;;;;2374162;56;21544;-78
2022/09/20 05:45:11;;;;;;;7.35;3.78;;;;;;;;;;2627317;52;21476;-77
2022/09/20 05:47:44;;;;;;;5.37;3.65;;;;;;;;;;2627413;52;21031;-77
2022/09/20 05:50:20;;;;;;;5.12;3.72;;;;;;;;;;2628260;52;21096;-77
2022/09/20 05:52:52;;;;;;;5.43;3.03;;;;;;;;;;2627089;52;21040;-77
2022/09/20 05:55:30;;;;;;;9.70;3.35;;;;;;;;;;2374140;56;21052;-77
2022/09/20 05:58:08;;;;;;;5.07;3.25;;;;;;;;;;2626935;52;21044;-78
2022/09/20 06:00:40;;;;;;;6.97;4.18;;;;;;;;;;2373532;56;21036;-78
2022/09/20 06:03:14;;;;;;;6.25;4.12;;;;;;;;;;2374788;56;21047;-78
2022/09/20 06:05:47;;;;;;;6.43;3.83;;;;;;;;;;2374396;56;21060;-80
2022/09/20 06:08:25;;;;;;;5.45;3.95;;;;;;;;;;2374249;56;21043;-79
2022/09/20 06:11:08;;;;;;;6.07;4.07;;;;;;;;;;2375074;56;21525;-81
2022/09/20 06:13:41;;;;;;;6.35;3.97;;;;;;;;;;2628507;52;21052;-78
2022/09/20 06:16:12;;;;;;;8.50;5.28;;;;;;;;;;2373127;56;21036;-79
2022/09/20 06:18:44;;;;;;;13.48;5.05;;;;;;;;;;2375258;56;21036;-77
2022/09/20 06:21:19;;;;;;;9.77;3.72;;;;;;;;;;2626663;52;21055;-79
2022/09/20 06:23:47;;;;;;;5.70;3.83;;;;;;;;;;2375034;56;21538;-77
2022/09/20 06:26:16;;;;;;;7.25;3.60;;;;;;;;;;2374946;56;21075;-77
2022/09/20 06:28:47;;;;;;;6.40;3.53;;;;;;;;;;2628376;52;21060;-80
2022/09/20 06:31:16;;;;;;;6.28;3.45;;;;;;;;;;2628184;52;21048;-77
2022/09/20 06:33:45;;;;;;;6.15;3.72;;;;;;;;;;2374189;56;21127;-77
2022/09/20 06:41:49;;;;;;;8.38;3.45;;;;;;;;;;2370209;56;21046;-79
2022/09/20 06:44:17;;;;;;;5.78;3.65;;;;;;;;;;2625325;52;21142;-79
2022/09/20 06:46:44;;;;;;;5.22;3.58;;;;;;;;;;2622902;52;21084;-80
2022/09/20 06:49:11;;;;;;;8.77;3.12;;;;;;;;;;2373398;56;21123;-78
2022/09/20 06:51:39;;;;;;;5.85;3.60;;;;;;;;;;2368996;56;21067;-78
2022/09/20 06:54:10;;;;;;;7.37;3.12;;;;;;;;;;2369998;56;21040;-77
2022/09/20 06:56:37;;;;;;;6.82;3.97;;;;;;;;;;2372475;56;21036;-78
2022/09/20 07:01:40;;;;;;;13.20;5.10;;;;;;;;;;2333954;57;39213;-77
2022/09/20 07:04:08;;;;;;;9.25;3.83;;;;;;;;;;2611081;52;21109;-76
2022/09/20 07:06:35;;;;;;;8.07;3.40;;;;;;;;;;2372444;56;21054;-76
2022/09/20 07:09:03;;;;;;;11.27;3.35;;;;;;;;;;2626319;52;21035;-78
2022/09/20 07:11:30;;;;;;;7.80;3.33;;;;;;;;;;2627678;52;21031;-79
2022/09/20 07:13:58;;;;;;;9.82;3.10;;;;;;;;;;2629046;52;21067;-79
2022/09/20 07:16:25;;;;;;;8.20;3.00;;;;;;;;;;2374801;56;21050;-76
2022/09/20 07:18:53;;;;;;;8.43;3.12;;;;;;;;;;2371789;56;21110;-78
2022/09/20 07:21:21;;;;;;;11.12;3.20;;;;;;;;;;2374682;56;21150;-78
2022/09/20 07:23:50;;;;;;;10.15;3.05;;;;;;;;;;2628642;52;21514;-78
2022/09/20 07:26:18;;;;;;;7.72;3.35;;;;;;;;;;2374693;56;21047;-77
2022/09/20 07:28:46;;;;;;;9.23;2.92;;;;;;;;;;2375521;56;21034;-79
2022/09/20 07:31:13;;;;;;;8.30;2.25;;;;;;;;;;2628627;52;21510;-78
2022/09/20 07:36:16;;;;;;;12.10;3.60;;;;;;;;;;2332252;57;27826;-76
2022/09/20 07:38:46;;;;;;;6.85;2.40;;;;;;;;;;2436569;51;71677;-74
2022/09/20 07:41:14;;;;;;;6.95;2.17;;;;;;;;;;2267458;59;21122;-76
2022/09/20 07:43:41;;;;;;;7.55;3.05;;;;;;;;;;2265395;59;21071;-77
2022/09/20 07:46:12;;;;;;;7.75;2.53;;;;;;;;;;2266841;59;21062;-82
2022/09/20 07:48:39;;;;;;;7.22;1.95;;;;;;;;;;2518141;55;21076;-82
2022/09/20 07:51:08;;;;;;;8.38;2.35;;;;;;;;;;2296861;58;21084;-81
2022/09/20 07:53:35;;;;;;;8.95;2.15;;;;;;;;;;2533346;55;21116;-82
2022/09/20 07:56:03;;;;;;;7.40;2.05;;;;;;;;;;2531650;55;21131;-80
2022/09/20 07:58:32;;;;;;;8.40;2.60;;;;;;;;;;2295502;58;21108;-82
2022/09/20 08:01:00;;;;;;;7.22;2.28;;;;;;;;;;2531855;55;21100;-83
2022/09/20 08:03:29;;;;;;;7.10;2.20;;;;;;;;;;2530967;55;21059;-81
2022/09/20 08:05:59;;;;;;;9.93;2.12;;;;;;;;;;2295789;58;21148;-82
2022/09/20 08:08:28;;;;;;;12.40;2.35;;;;;;;;;;2531749;55;21060;-83
2022/09/20 08:11:01;;;;;;;7.85;2.45;;;;;;;;;;2295064;58;21072;-82
2022/09/20 08:13:29;;;;;;;8.40;1.60;;;;;;;;;;2530712;55;21691;-82
2022/09/20 08:18:37;;;;;;;8.38;1.90;;;;;;;;;;2354638;57;22110;-76
2022/09/20 08:21:05;;;;;;;12.07;2.28;;;;;;;;;;2595110;53;21072;-76
2022/09/20 08:23:34;;;;;;;12.75;2.28;;;;;;;;;;2355739;56;21531;-77
2022/09/20 08:26:01;;;;;;;9.90;1.80;;;;;;;;;;2628225;52;21423;-76
2022/09/20 08:28:28;;;;;;;9.38;2.72;;;;;;;;;;2628636;52;21082;-76
2022/09/20 08:31:02;;;;;;;11.15;1.80;;;;;;;;;;2628786;52;21660;-77
2022/09/20 08:33:30;;;;;;;13.30;1.80;;;;;;;;;;2374344;56;21127;-77
2022/09/20 08:35:57;;;;;;;5.15;1.65;;;;;;;;;;2627581;52;21122;-77
2022/09/20 08:38:26;;;;;;;13.52;2.87;;;;;;;;;;2375252;56;21078;-77
2022/09/20 08:40:56;;;;;;;11.00;2.08;;;;;;;;;;2375376;56;21043;-76
2022/09/20 08:43:27;;;;;;;15.93;2.15;;;;;;;;;;2375360;56;21055;-76
2022/09/20 08:45:55;;;;;;;15.80;3.08;;;;;;;;;;2374886;56;21023;-77
2022/09/20 08:48:25;;;;;;;10.05;1.87;;;;;;;;;;2372790;56;21106;-77
2022/09/20 08:53:30;;;;;;;12.63;2.25;;;;;;;;;;2523469;54;22670;-78
2022/09/20 08:55:58;;;;;;;11.57;1.77;;;;;;;;;;2290199;58;21042;-78
2022/09/20 08:58:26;;;;;;;11.23;3.05;;;;;;;;;;2526001;54;21024;-79
2022/09/20 09:00:55;;;;;;;9.07;2.03;;;;;;;;;;2525541;54;21641;-78
2022/09/20 09:03:22;;;;;;;11.32;1.98;;;;;;;;;;2289913;58;21332;-78
2022/09/20 09:05:51;;;;;;;12.60;2.83;;;;;;;;;;2290407;58;21066;-79
2022/09/20 09:08:20;;;;;;;10.35;2.08;;;;;;;;;;2524961;55;21102;-78
2022/09/20 09:10:51;;;;;;;11.82;2.37;;;;;;;;;;2289929;58;21131;-79
2022/09/20 09:13:21;;;;;;;8.48;1.65;;;;;;;;;;2526161;54;21047;-79
2022/09/20 09:15:52;;;;;;;13.23;1.90;;;;;;;;;;2525979;55;21075;-78
2022/09/20 09:18:19;;;;;;;7.65;1.80;;;;;;;;;;2525566;55;21051;-78
2022/09/20 09:20:46;;;;;;;13.10;2.65;;;;;;;;;;2292034;58;21067;-79
2022/09/20 09:23:24;;;;;;;8.75;1.98;;;;;;;;;;2291597;58;21135;-80
2022/09/20 09:25:51;;;;;;;11.77;2.03;;;;;;;;;;2288240;58;21455;-78
2022/09/20 09:28:22;;;;;;;14.40;2.08;;;;;;;;;;2289254;58;21035;-78
2022/09/20 09:30:49;;;;;;;8.35;2.20;;;;;;;;;;2291474;58;21055;-78
2022/09/20 09:33:27;;;;;;;6.75;1.48;;;;;;;;;;2291972;58;21147;-78
2022/09/20 09:35:55;;;;;;;5.68;1.70;;;;;;;;;;2290874;58;21130;-78
2022/09/20 09:38:24;;;;;;;10.02;1.50;;;;;;;;;;2291517;58;21194;-78
2022/09/20 09:40:53;;;;;;;10.93;1.70;;;;;;;;;;2291799;58;21676;-78
2022/09/20 09:43:23;;;;;;;11.90;1.87;;;;;;;;;;2288652;58;21126;-78
2022/09/20 09:45:50;;;;;;;5.03;1.65;;;;;;;;;;2289024;58;21087;-77
2022/09/20 09:48:19;;;;;;;12.93;1.80;;;;;;;;;;2525623;54;21107;-77
2022/09/20 09:50:46;;;;;;;12.68;2.00;;;;;;;;;;2289513;58;21059;-77
2022/09/20 09:53:15;;;;;;;7.55;1.52;;;;;;;;;;2525437;54;21074;-77
2022/09/20 09:55:53;;;;;;;8.15;2.12;;;;;;;;;;2289747;58;21636;-76
2022/09/20 09:58:24;;;;;;;12.85;1.80;;;;;;;;;;2291451;58;21626;-77
2022/09/20 10:00:52;;;;;;;6.85;1.35;;;;;;;;;;2290720;58;21178;-77
2022/09/20 10:03:31;;;;;;;12.18;1.98;;;;;;;;;;2290813;58;21416;-76
2022/09/20 10:06:04;;;;;;;6.80;1.70;;;;;;;;;;2289847;58;21067;-77
2022/09/20 10:08:36;;;;;;;10.32;1.80;;;;;;;;;;2289651;58;21533;-78
2022/09/20 10:11:11;;;;;;;8.30;1.50;;;;;;;;;;2526564;55;21111;-85
2022/09/20 10:13:42;;;;;;;7.03;1.52;;;;;;;;;;2526410;54;21179;-84
2022/09/20 10:16:16;;;;;;;8.23;2.08;;;;;;;;;;2526186;55;21051;-86
2022/09/20 10:18:47;;;;;;;18.48;2.30;;;;;;;;;;2526396;55;21083;-84
2022/09/20 10:21:27;;;;;;;33.30;5.28;;;;;;;;;;2526447;55;21051;-85
2022/09/20 10:24:08;;;;;;;75.05;13.45;;;;;;;;;;2526516;54;21100;-84
2022/09/20 10:26:57;;;;;;;22.35;3.58;;;;;;;;;;2526283;55;21063;-85
2022/09/20 10:29:29;;;;;;;32.58;6.70;;;;;;;;;;2526402;55;21593;-82
2022/09/20 10:32:04;;;;;;;40.12;7.72;;;;;;;;;;2525722;55;21118;-84
2022/09/20 10:34:50;;;;;;;21.30;4.47;;;;;;;;;;2526043;54;21044;-84
2022/09/20 10:37:24;;;;;;;36.60;6.95;;;;;;;;;;2291734;58;21054;-84
2022/09/20 10:39:50;;;;;;;;;;;;;;;;;;2530273;54;21123;-83
2022/09/20 10:45:13;;;;;;;15.23;2.50;;;;;;;;;;2291643;58;21609;-84
2022/09/20 10:47:42;;;;;;;9.95;2.00;;;;;;;;;;2525728;55;21556;-84
2022/09/20 10:50:18;;;;;;;5.57;1.48;;;;;;;;;;2525914;55;21119;-83
2022/09/20 10:53:01;;;;;;;7.72;1.30;;;;;;;;;;2525471;54;21138;-84
2022/09/20 10:55:39;;;;;;;10.83;1.80;;;;;;;;;;2525664;55;21054;-84
2022/09/20 10:58:23;;;;;;;14.75;3.87;;;;;;;;;;2526676;55;21051;-85
2022/09/20 11:00:57;;;;;;;7.00;1.90;;;;;;;;;;2525515;55;21083;-83
2022/09/20 11:03:33;;;;;;;10.50;2.40;;;;;;;;;;2526643;54;21044;-83
2022/09/20 11:06:08;;;;;;;20.33;3.20;;;;;;;;;;2526381;55;21087;-81
2022/09/20 11:08:37;;;;;;;7.87;2.30;;;;;;;;;;2527623;55;21063;-81
2022/09/20 11:11:09;;;;;;;6.95;1.30;;;;;;;;;;2529084;54;21075;-83
2022/09/20 11:13:40;;;;;;;5.82;1.58;;;;;;;;;;2526382;54;21155;-83
2022/09/20 11:16:12;;;;;;;5.05;1.77;;;;;;;;;;2526737;55;21043;-83
2022/09/20 11:18:43;;;;;;;5.95;1.37;;;;;;;;;;2291121;58;21652;-85
2022/09/20 11:21:18;;;;;;;5.40;1.30;;;;;;;;;;2526144;55;21071;-81
2022/09/20 11:23:49;;;;;;;5.12;1.42;;;;;;;;;;2526198;54;21160;-84
2022/09/20 11:26:20;;;;;;;6.07;1.12;;;;;;;;;;2524944;55;21107;-81
2022/09/20 11:28:49;;;;;;;8.00;1.23;;;;;;;;;;2290539;58;21585;-80
2022/09/20 11:31:20;;;;;;;7.22;2.08;;;;;;;;;;2525269;55;21146;-82
2022/09/20 11:33:51;;;;;;;6.20;1.62;;;;;;;;;;2290400;58;21537;-81
2022/09/20 11:36:21;;;;;;;8.38;1.73;;;;;;;;;;2525639;55;21134;-83
2022/09/20 11:38:50;;;;;;;5.10;1.52;;;;;;;;;;2525355;55;21044;-82
2022/09/20 11:41:19;;;;;;;7.00;1.45;;;;;;;;;;2525544;55;21048;-82
2022/09/20 11:43:47;;;;;;;6.10;1.87;;;;;;;;;;2524167;54;21708;-81
2022/09/20 11:46:19;;;;;;;6.65;1.37;;;;;;;;;;2524211;55;21075;-82
2022/09/20 11:48:48;;;;;;;5.95;1.20;;;;;;;;;;2525004;55;21063;-81
2022/09/20 11:51:35;;;;;;;5.70;0.95;;;;;;;;;;2524974;55;21067;-81
2022/09/20 11:54:13;;;;;;;8.73;1.50;;;;;;;;;;2289719;58;21699;-82
2022/09/20 11:56:40;;;;;;;6.78;1.25;;;;;;;;;;2290910;58;21047;-82
2022/09/20 11:59:26;;;;;;;8.25;1.33;;;;;;;;;;2291234;58;21103;-81
2022/09/20 12:01:54;;;;;;;4.43;1.10;;;;;;;;;;2525765;55;21165;-81
2022/09/20 12:04:25;;;;;;;6.43;2.03;;;;;;;;;;2290831;58;21071;-83
2022/09/20 12:06:58;;;;;;;7.07;1.42;;;;;;;;;;2290983;58;21078;-81
2022/09/20 12:09:29;;;;;;;7.47;1.98;;;;;;;;;;2290767;58;21059;-81
2022/09/20 12:11:58;;;;;;;9.07;1.48;;;;;;;;;;2525368;55;21047;-81
2022/09/20 12:14:26;;;;;;;18.27;2.55;;;;;;;;;;2290816;58;21071;-81
2022/09/20 12:16:55;;;;;;;6.03;1.65;;;;;;;;;;2524896;54;21111;-80
2022/09/20 12:19:38;;;;;;;6.35;1.33;;;;;;;;;;2290730;58;21082;-82
2022/09/20 12:22:36;;;;;;;3.67;1.08;;;;;;;;;;2291119;58;21071;-82
2022/09/20 12:25:32;;;;;;;4.20;0.88;;;;;;;;;;2253067;58;21067;-81
2022/09/20 12:27:59;;;;;;;6.72;1.55;;;;;;;;;;2506560;55;21071;-82
2022/09/20 12:30:27;;;;;;;6.75;1.40;;;;;;;;;;2290329;58;21055;-80
2022/09/20 12:32:56;;;;;;;3.05;0.80;;;;;;;;;;2526192;54;21087;-81
2022/09/20 12:36:01;;;;;;;3.80;0.80;;;;;;;;;;2290958;58;21082;-80
2022/09/20 12:38:30;;;;;;;4.90;1.27;;;;;;;;;;2290892;58;21122;-80
2022/09/20 12:41:08;;;;;;;4.68;1.27;;;;;;;;;;2526245;55;21082;-80
2022/09/20 12:43:36;;;;;;;4.00;1.30;;;;;;;;;;2290742;59;21130;-80
2022/09/20 12:46:04;;;;;;;3.92;1.17;;;;;;;;;;2290601;58;21239;-81
2022/09/20 12:48:36;;;;;;;3.83;1.10;;;;;;;;;;2290574;59;22264;-80
2022/09/20 12:54:04;;;;;;;7.10;1.50;;;;;;;;;;2290312;58;21098;-83
2022/09/20 12:56:33;;;;;;;4.87;1.35;;;;;;;;;;2525276;55;21123;-82
2022/09/20 12:59:04;;;;;;;10.02;1.33;;;;;;;;;;2525278;55;21067;-80
2022/09/20 13:01:33;;;;;;;5.43;1.00;;;;;;;;;;2525564;55;21036;-82
2022/09/20 13:04:18;;;;;;;2.90;0.90;;;;;;;;;;2290669;59;21159;-81
2022/09/20 13:06:46;;;;;;;4.00;1.17;;;;;;;;;;2290152;58;21119;-83
2022/09/20 13:09:14;;;;;;;4.45;1.00;;;;;;;;;;2290481;59;21036;-81
2022/09/20 13:11:43;;;;;;;5.97;1.02;;;;;;;;;;2291018;59;21059;-81
2022/09/20 13:14:12;;;;;;;8.82;2.28;;;;;;;;;;2290991;58;21118;-83
2022/09/20 13:16:45;;;;;;;5.70;1.50;;;;;;;;;;2526118;54;21537;-80
2022/09/20 13:19:15;;;;;;;5.25;1.50;;;;;;;;;;2290686;58;21059;-82
2022/09/20 13:21:48;;;;;;;4.62;0.90;;;;;;;;;;2290665;59;21155;-80
2022/09/20 13:24:18;;;;;;;5.20;1.35;;;;;;;;;;2290822;58;21067;-81
2022/09/20 13:26:46;;;;;;;6.30;1.55;;;;;;;;;;2290927;58;21063;-83
2022/09/20 13:29:23;;;;;;;4.72;1.08;;;;;;;;;;2291392;58;21067;-84
2022/09/20 13:31:50;;;;;;;4.97;1.10;;;;;;;;;;2291107;59;21054;-80
2022/09/20 13:34:21;;;;;;;2.83;1.08;;;;;;;;;;2290109;58;21114;-80
2022/09/20 13:36:50;;;;;;;5.22;1.17;;;;;;;;;;2525806;55;21139;-80
2022/09/20 13:39:23;;;;;;;8.13;1.00;;;;;;;;;;2331487;53;71064;-76
2022/09/20 13:41:51;;;;;;;3.37;0.90;;;;;;;;;;2359361;57;21037;-74
2022/09/20 13:44:19;;;;;;;4.80;1.08;;;;;;;;;;2530725;53;21095;-76
2022/09/20 13:46:46;;;;;;;2.95;0.82;;;;;;;;;;2359321;57;21092;-76
2022/09/20 13:49:19;;;;;;;2.80;0.90;;;;;;;;;;2381803;53;21073;-77
2022/09/20 13:51:47;;;;;;;6.18;1.10;;;;;;;;;;2359519;57;21111;-78
2022/09/20 13:54:18;;;;;;;5.43;0.93;;;;;;;;;;2363750;53;21029;-74
2022/09/20 13:56:45;;;;;;;6.68;1.10;;;;;;;;;;2365770;53;21084;-75
2022/09/20 13:59:16;;;;;;;3.37;0.93;;;;;;;;;;2360071;57;21029;-75
2022/09/20 14:01:44;;;;;;;5.12;0.95;;;;;;;;;;2359135;57;21112;-76
2022/09/20 14:04:15;;;;;;;4.78;0.90;;;;;;;;;;2359569;57;21044;-76
2022/09/20 14:06:42;;;;;;;3.75;1.12;;;;;;;;;;2609079;53;21537;-77
2022/09/20 14:09:20;;;;;;;5.28;1.33;;;;;;;;;;2359201;57;21045;-76
2022/09/20 14:11:47;;;;;;;4.72;1.10;;;;;;;;;;2359306;57;21120;-75
2022/09/20 14:14:15;;;;;;;3.33;1.20;;;;;;;;;;2359525;57;21121;-75
2022/09/20 14:16:45;;;;;;;2.55;0.73;;;;;;;;;;2359607;57;21132;-78
2022/09/20 14:19:14;;;;;;;3.25;1.12;;;;;;;;;;2360315;53;21097;-76
2022/09/20 14:21:42;;;;;;;3.25;1.08;;;;;;;;;;2414171;53;21183;-76
2022/09/20 14:24:24;;;;;;;6.05;1.12;;;;;;;;;;2596230;53;21020;-76
2022/09/20 14:27:01;;;;;;;2.97;0.80;;;;;;;;;;2359635;57;21159;-75
2022/09/20 14:29:29;;;;;;;2.03;0.70;;;;;;;;;;2359422;57;21041;-75
2022/09/20 14:32:02;;;;;;;5.32;0.95;;;;;;;;;;2402068;53;21699;-84
2022/09/20 14:34:29;;;;;;;3.05;1.15;;;;;;;;;;2367033;53;21433;-83
2022/09/20 14:37:02;;;;;;;2.28;0.98;;;;;;;;;;2373113;52;21048;-84
2022/09/20 14:39:29;;;;;;;;;;;;;;;;;;2367014;53;21012;-84
2022/09/20 14:41:56;;;;;;;3.92;1.00;;;;;;;;;;2365086;55;20030;-85
2022/09/20 14:44:26;;;;;;;1.55;0.70;;;;;;;;;;2371531;53;21033;-83
2022/09/20 14:46:53;;;;;;;2.70;0.82;;;;;;;;;;2365149;57;21072;-85
2022/09/20 14:49:21;;;;;;;2.70;0.98;;;;;;;;;;2380040;53;21101;-85
2022/09/20 14:51:49;;;;;;;5.00;1.33;;;;;;;;;;2364109;57;21116;-86
2022/09/20 14:54:24;;;;;;;3.35;1.40;;;;;;;;;;2364266;54;21033;-85
2022/09/20 14:56:52;;;;;;;3.37;0.82;;;;;;;;;;2363872;54;21096;-85
2022/09/20 14:59:21;;;;;;;4.40;1.08;;;;;;;;;;2365220;53;21021;-85
2022/09/20 15:01:55;;;;;;;1.67;0.90;;;;;;;;;;2365632;57;21100;-85
2022/09/20 15:04:24;;;;;;;5.00;0.70;;;;;;;;;;2365605;57;21064;-85
2022/09/20 15:06:51;;;;;;;3.47;0.90;;;;;;;;;;2365386;57;21025;-85
2022/09/20 15:09:20;;;;;;;2.92;0.93;;;;;;;;;;2365547;53;21041;-83
2022/09/20 15:11:58;;;;;;;8.80;1.85;;;;;;;;;;2364665;54;21036;-84
2022/09/20 15:14:25;;;;;;;2.92;0.98;;;;;;;;;;2389107;53;21215;-84
2022/09/20 15:16:55;;;;;;;5.68;1.08;;;;;;;;;;2367068;53;21072;-86
2022/09/20 15:19:22;;;;;;;6.43;1.20;;;;;;;;;;2368391;53;21076;-85
2022/09/20 15:21:49;;;;;;;4.00;1.20;;;;;;;;;;2365272;53;21041;-84
2022/09/20 15:24:17;;;;;;;4.80;1.10;;;;;;;;;;2364254;55;21001;-84
2022/09/20 15:26:45;;;;;;;4.45;1.10;;;;;;;;;;2393870;53;21052;-84
2022/09/20 15:29:15;;;;;;;4.37;1.10;;;;;;;;;;2376705;53;21188;-86
2022/09/20 15:31:42;;;;;;;4.95;0.98;;;;;;;;;;2361141;53;21060;-76